Skip Navigation Links
NOAA logo - Click to go to the NOAA homepage
NOAA's National Weather Service
Alaska Aviation Weather Unit
  NWS logo - Click to go to the NWS homepage
Left Navbar Graphic     15 AKDT = 23 GMT

   
NOAA is celebrating 200 years of science, service, and stewardship. Visit the NOAA 200th celebration Web site to learn more.
USA.gov is the U.S. Government's official Web portal to all Federal, state and local government Web resources and services.
Facebook
NWS on Facebook

Important Change Regarding the AAWU Web Presence

 

Over the last several months, the AAWU has been working to navigate its webpages to a nationally supported server. Security, as well as other needs, have necessitated the change.  We have been given an extension for the site changeover while we diligently work at addressing feedback received. As of July 14, 2017, aawu.arh.noaa.gov will be discontinued. The new AAWU web address is weather.gov/aawu. It is now live and will run in-parallel with the old site until it is discontinued on July 14, 2017. Please continue to send any feedback or questions regarding the new webpages to nws.ar.aawu.webauthors@noaa.gov.  Thank you for your patience during this time of transition.
AAWU Home :: Display TAF Add Bookmark
TAF PAHN 192327Z 2000/2024  30011KT P6SM OVC060
     FM200600 32007KT P6SM VCSH OVC050
     FM201200 10008KT P6SM -SHRA SCT025 OVC050
      AMD LTD TO CLD VIS AND WIND=

7903
FTAK31 PAJN 192327
TAFAKT
TAF
METAR PAHN 191754Z AUTO 31014KT 10SM CLR 04/M01 A2900 RMK AO2 SLP823
 T00391006 10039 20022 53007 TSNO=

METAR PAHN 191854Z AUTO 31013KT 10SM CLR 04/00 A2901 RMK AO2 SLP825
     T00390000 TSNO=

PAHN 191954Z AUTO 31013G19KT 10SM SCT110 04/M01 A2902 RMK AO2
     SLP828 T00441006 TSNO=

METAR PAHN 192054Z AUTO 31013KT 10SM BKN070 05/00 A2902 RMK AO2 SLP831
     T00500000 53008 TSNO=

METAR PAHN 192154Z AUTO 31011KT 10SM OVC065 06/M01 A2904 RMK AO2 SLP835
     T00561006 TSNO=

PAHN 192254Z AUTO 31009KT 10SM BKN055 OVC070 06/01 A2904 RMK AO2
     SLP837 T00560006 TSNO=


NOAA's National Weather Service
Alaska Aviation Weather Unit
6930 Sand Lake Road
Anchorage, AK 99502-1845
Disclaimer
Credits
Glossary
Privacy Policy
About Us
Career Opportunities
Contact AAWU Internet Services Site last modified: April, 17th 2012